Buena Vista, CO

7:25 PM MST on February 10, 2016 (GMT -0700)
Salida | | Change Station
CLOSE
Current Station
Airport
Location: Salida,
Elevation: 7523 ft
Nearby Weather Stations

Elev 7523 ft 38.54 °N, 106.05 °W | Updated 5 days ago

Clear
Clear
36 °F
Feels Like 28 °F
N
10
Wind Variable Wind from NW
Gusts 16 mph

Today
High -- | Low -- °F
--% Chance of Precip.
Yesterday
High -- | Low -- °F
Precip. -- in
Pressure 30.37 in
Visibility 10.0 miles
Clouds Clear
Windchill 28 °F
Dew Point 15 °F
Humidity 42%
Rainfall 0.00 in
Snow Depth Not available.
7:02 AM 5:36 PM
Waxing Crescent, 8% visible
METAR KANK 060035Z AUTO 25006KT 10SM CLR M03/M14 A3037 RMK AO1 T10311142
Pressure 30.37 in
Visibility 10.0 miles
Clouds Clear
Windchill 28 °F
Dew Point 15 °F
Humidity 42%
Rainfall 0.00 in
Snow Depth Not available.
7:02 AM 5:36 PM
Waxing Crescent, 8% visible
METAR KANK 060035Z AUTO 25006KT 10SM CLR M03/M14 A3037 RMK AO1 T10311142

10-Day Weather Forecast

Almanac

Astronomy

Feb. 10, 2016 Rise Set
Actual Time
Civil Twilight
Nautical Twilight
Astronomical Twilight
Moon
Length of Visible Light
Length of Day
Tomorrow will be .
, % of the Moon is Illuminated

Today's Extremes

State Highs State Lows

Community

WunderPhotos

Upload Photos

1,891,984 photos uploaded!

WunderBlog® & News

Nearby

Air Quality

  Air Quality AQ Index Pollutant
Not available.

Snow Depth

Station Depth Elevation

Earthquake Activity

City Distance Mag. Time & Date
Minimum magnitude displayed is 2.5.

Coastal Water Temperatures

Place Temperature

Stations

Nearby Weather Stations

Station Location Temp. Windchill Dew Point Humidity Wind Precip. Elev Updated Type
                   

Watches & Warnings

There are currently no watches in effect.